createdAt,value
2022-08-30T00:00:02.353Z,9.33
2022-08-30T00:02:31.611Z,6.30
2022-08-30T00:05:01.735Z,11.60
2022-08-30T00:07:28.713Z,6.87
2022-08-30T00:09:55.857Z,4.23
2022-08-30T00:12:22.897Z,3.83
2022-08-30T00:14:49.900Z,7.83
2022-08-30T00:17:16.930Z,8.10
2022-08-30T00:19:43.989Z,8.87
2022-08-30T00:22:11.026Z,7.07
2022-08-30T00:24:38.587Z,5.27
2022-08-30T00:27:05.569Z,6.00
2022-08-30T00:29:32.458Z,4.17
2022-08-30T00:32:05.836Z,8.13
2022-08-30T00:34:32.763Z,6.07
2022-08-30T00:36:59.606Z,10.97
2022-08-30T00:39:27.085Z,6.20
2022-08-30T00:41:54.031Z,9.37
2022-08-30T00:44:20.869Z,7.87
2022-08-30T00:46:47.857Z,7.87
2022-08-30T00:49:14.843Z,5.67
2022-08-30T00:51:42.048Z,16.63
2022-08-30T00:54:09.370Z,8.73
2022-08-30T00:56:36.458Z,7.53
2022-08-30T00:59:04.294Z,8.60
2022-08-30T01:01:34.408Z,10.50
2022-08-30T01:04:01.791Z,8.13
2022-08-30T01:06:32.639Z,5.00
2022-08-30T01:09:00.527Z,7.37
2022-08-30T01:11:27.671Z,7.57
2022-08-30T01:13:56.300Z,8.80
2022-08-30T01:16:25.475Z,7.00
2022-08-30T01:18:55.391Z,8.07
2022-08-30T01:21:22.198Z,5.93
2022-08-30T01:23:50.501Z,7.83
2022-08-30T01:26:19.216Z,9.30
2022-08-30T01:28:53.327Z,7.73
2022-08-30T01:31:20.633Z,6.23
2022-08-30T01:33:47.556Z,7.77
2022-08-30T01:36:14.915Z,8.17
2022-08-30T01:38:52.744Z,7.00
2022-08-30T01:41:21.427Z,9.10
2022-08-30T01:43:49.778Z,7.00
2022-08-30T01:46:18.150Z,9.93
2022-08-30T01:48:52.979Z,5.87
2022-08-30T01:51:22.159Z,6.67
2022-08-30T01:53:49.263Z,7.10
2022-08-30T01:56:16.743Z,11.07
2022-08-30T01:58:44.270Z,9.27
2022-08-30T02:01:15.643Z,8.10
2022-08-30T02:03:44.557Z,7.77
2022-08-30T02:06:13.126Z,8.07
2022-08-30T02:08:40.664Z,11.03
2022-08-30T02:11:09.571Z,7.73
2022-08-30T02:13:40.243Z,7.60
2022-08-30T02:16:09.085Z,9.03
2022-08-30T02:18:36.312Z,6.73
2022-08-30T02:21:04.775Z,7.40
2022-08-30T02:23:31.689Z,12.03
2022-08-30T02:25:58.948Z,6.90
2022-08-30T02:28:26.131Z,42.03
2022-08-30T02:30:53.531Z,63.10
2022-08-30T02:33:20.617Z,26.20
2022-08-30T02:35:47.557Z,9.77
2022-08-30T02:38:14.612Z,7.80
2022-08-30T02:40:41.718Z,8.10
2022-08-30T02:43:08.762Z,6.93
2022-08-30T02:45:35.682Z,9.47
2022-08-30T02:48:02.709Z,10.13
2022-08-30T02:50:29.583Z,9.63
2022-08-30T02:52:56.522Z,8.30
2022-08-30T02:55:23.717Z,11.53
2022-08-30T02:57:50.767Z,9.13
2022-08-30T03:00:19.467Z,13.67
2022-08-30T03:02:46.674Z,8.20
2022-08-30T03:05:14.425Z,13.60
2022-08-30T03:07:41.679Z,6.27
2022-08-30T03:10:08.811Z,14.33
2022-08-30T03:12:35.863Z,7.13
2022-08-30T03:15:02.712Z,8.13
2022-08-30T03:17:30.833Z,7.00
2022-08-30T03:20:00.470Z,5.53
2022-08-30T03:22:27.484Z,5.77
2022-08-30T03:24:58.244Z,5.97
2022-08-30T03:27:25.835Z,10.27
2022-08-30T03:29:52.721Z,6.67
2022-08-30T03:32:19.669Z,9.53
2022-08-30T03:34:46.510Z,10.30
2022-08-30T03:37:13.461Z,6.77
2022-08-30T03:39:41.650Z,8.70
2022-08-30T03:42:08.799Z,15.87
2022-08-30T03:44:35.878Z,9.77
2022-08-30T03:47:04.213Z,18.20
2022-08-30T03:49:31.839Z,17.17
2022-08-30T03:51:58.763Z,9.73
2022-08-30T03:54:25.715Z,9.50
2022-08-30T03:56:52.883Z,7.73
2022-08-30T03:59:20.197Z,13.47
2022-08-30T04:01:48.100Z,10.10
2022-08-30T04:04:20.063Z,8.53
2022-08-30T04:06:47.837Z,10.53
2022-08-30T04:09:14.679Z,7.00
2022-08-30T04:11:41.759Z,17.70
2022-08-30T04:14:08.664Z,12.20
2022-08-30T04:16:35.662Z,13.00
2022-08-30T04:19:02.500Z,7.70
2022-08-30T04:21:29.465Z,11.87
2022-08-30T04:23:56.472Z,9.90
2022-08-30T04:26:23.411Z,9.30
2022-08-30T04:28:56.140Z,8.90
2022-08-30T04:31:23.115Z,12.57
2022-08-30T04:33:50.087Z,13.10
2022-08-30T04:36:16.929Z,12.93
2022-08-30T04:38:43.945Z,11.53
2022-08-30T04:41:12.438Z,13.87
2022-08-30T04:43:40.221Z,11.87
2022-08-30T04:46:08.257Z,10.77
2022-08-30T04:48:36.392Z,10.57
2022-08-30T04:51:04.745Z,10.63
2022-08-30T04:53:31.994Z,7.23
2022-08-30T04:55:58.857Z,12.33
2022-08-30T04:58:25.809Z,7.17
2022-08-30T05:00:53.174Z,13.67
2022-08-30T05:03:20.057Z,11.17
2022-08-30T05:05:47.935Z,10.03
2022-08-30T05:08:15.864Z,9.17
2022-08-30T05:10:44.107Z,13.07
2022-08-30T05:13:10.988Z,10.97
2022-08-30T05:15:38.736Z,15.57
2022-08-30T05:18:05.654Z,10.33
2022-08-30T05:20:32.613Z,18.50
2022-08-30T05:22:59.608Z,13.50
2022-08-30T05:25:27.939Z,16.10
2022-08-30T05:27:55.253Z,21.10
2022-08-30T05:30:22.641Z,13.27
2022-08-30T05:32:49.688Z,15.67
2022-08-30T05:35:17.065Z,15.60
2022-08-30T05:37:44.271Z,14.03
2022-08-30T05:40:12.008Z,15.77
2022-08-30T05:42:41.519Z,14.37
2022-08-30T05:45:08.914Z,15.90
2022-08-30T05:47:36.022Z,11.83
2022-08-30T05:50:03.919Z,15.83
2022-08-30T05:52:30.798Z,12.20
2022-08-30T05:55:03.341Z,15.10
2022-08-30T05:57:34.207Z,19.37
2022-08-30T06:00:04.785Z,16.90
2022-08-30T06:02:38.976Z,17.83
2022-08-30T06:05:06.318Z,24.67
2022-08-30T06:07:33.149Z,18.87
2022-08-30T06:10:00.338Z,20.93
2022-08-30T06:12:27.267Z,19.07
2022-08-30T06:14:54.139Z,12.97
2022-08-30T06:17:21.014Z,16.20
2022-08-30T06:19:47.916Z,18.03
2022-08-30T06:22:14.740Z,13.27
2022-08-30T06:24:57.016Z,14.53
2022-08-30T06:27:24.928Z,14.30
2022-08-30T06:29:52.229Z,14.90
2022-08-30T06:32:19.301Z,16.70
2022-08-30T06:34:46.122Z,14.83
2022-08-30T06:37:29.243Z,14.83
2022-08-30T06:39:57.728Z,13.90
2022-08-30T06:42:24.753Z,16.67
2022-08-30T06:44:52.177Z,12.43
2022-08-30T06:47:19.056Z,18.30
2022-08-30T06:49:45.966Z,24.57
2022-08-30T06:52:12.796Z,16.30
2022-08-30T06:54:39.908Z,12.40
2022-08-30T06:57:06.808Z,16.60
2022-08-30T06:59:35.067Z,15.30
2022-08-30T07:02:02.183Z,12.27
2022-08-30T07:04:29.052Z,14.87
2022-08-30T07:06:56.021Z,15.70
2022-08-30T07:09:23.288Z,15.47
2022-08-30T07:11:50.989Z,15.57
2022-08-30T07:14:18.000Z,15.13
2022-08-30T07:16:45.659Z,16.63
2022-08-30T07:19:20.688Z,19.87
2022-08-30T07:21:49.374Z,14.00
2022-08-30T07:24:16.569Z,17.13
2022-08-30T07:26:47.545Z,18.53
2022-08-30T07:29:14.935Z,15.63
2022-08-30T07:31:41.813Z,17.57
2022-08-30T07:34:09.201Z,20.53
2022-08-30T07:36:37.271Z,14.70
2022-08-30T07:39:04.673Z,17.20
2022-08-30T07:41:32.765Z,14.77
2022-08-30T07:43:59.687Z,15.30
2022-08-30T07:46:27.667Z,19.67
2022-08-30T07:48:55.509Z,18.60
2022-08-30T07:51:23.541Z,13.63
2022-08-30T07:53:50.363Z,19.43
2022-08-30T07:56:17.586Z,17.33
2022-08-30T07:58:44.413Z,16.43
2022-08-30T08:01:11.955Z,17.17
2022-08-30T08:03:42.420Z,18.50
2022-08-30T08:06:10.423Z,14.47
2022-08-30T08:08:38.194Z,16.93
2022-08-30T08:11:09.285Z,14.57
2022-08-30T08:13:36.668Z,15.00
2022-08-30T08:16:22.305Z,14.53
2022-08-30T08:18:49.261Z,17.17
2022-08-30T08:21:16.214Z,13.17
2022-08-30T08:23:43.149Z,16.07
2022-08-30T08:26:10.279Z,17.37
2022-08-30T08:28:37.238Z,13.00
2022-08-30T08:31:04.260Z,14.40
2022-08-30T08:33:31.177Z,23.17
2022-08-30T08:35:58.149Z,14.23
2022-08-30T08:38:24.979Z,10.07
2022-08-30T08:41:01.105Z,15.63
2022-08-30T08:43:28.184Z,16.73
2022-08-30T08:46:04.510Z,12.80
2022-08-30T08:48:59.937Z,11.53
2022-08-30T08:51:49.610Z,13.87
2022-08-30T08:54:20.291Z,9.47
2022-08-30T08:56:47.331Z,8.93
2022-08-30T08:59:15.327Z,10.23
2022-08-30T09:01:42.269Z,13.60
2022-08-30T09:04:11.939Z,10.50
2022-08-30T09:06:57.397Z,9.00
2022-08-30T09:09:29.799Z,8.30
2022-08-30T09:11:56.926Z,10.67
2022-08-30T09:14:30.286Z,12.23
2022-08-30T09:16:57.411Z,8.67
2022-08-30T09:19:41.508Z,7.80
2022-08-30T09:22:27.072Z,11.03
2022-08-30T09:24:59.614Z,9.40
2022-08-30T09:27:28.346Z,11.77
2022-08-30T09:29:57.602Z,9.53
2022-08-30T09:32:26.393Z,7.23
2022-08-30T09:34:53.337Z,9.53
2022-08-30T09:37:28.096Z,7.33
2022-08-30T09:39:55.288Z,5.67
2022-08-30T09:42:25.545Z,7.10
2022-08-30T09:44:53.385Z,5.13
2022-08-30T09:47:24.201Z,6.53
2022-08-30T09:50:02.462Z,4.43
2022-08-30T09:52:49.912Z,5.40
2022-08-30T09:55:39.141Z,9.27
2022-08-30T09:58:19.521Z,10.80
2022-08-30T10:00:56.915Z,7.87
2022-08-30T10:03:36.232Z,6.70
2022-08-30T10:06:15.333Z,4.50
2022-08-30T10:08:45.614Z,4.77
2022-08-30T10:11:33.355Z,5.17
2022-08-30T10:14:09.605Z,4.33
2022-08-30T10:16:36.518Z,4.70
2022-08-30T10:19:14.636Z,6.53
2022-08-30T10:21:49.564Z,4.40
2022-08-30T10:24:21.285Z,4.13
2022-08-30T10:26:53.022Z,5.90
2022-08-30T10:29:25.633Z,8.13
2022-08-30T10:31:54.840Z,5.13
2022-08-30T10:34:27.155Z,5.47
2022-08-30T10:37:00.042Z,4.60
2022-08-30T10:39:28.468Z,7.27
2022-08-30T10:42:07.880Z,7.17
2022-08-30T10:44:39.735Z,5.07
2022-08-30T10:47:18.597Z,9.63
2022-08-30T10:49:54.462Z,4.53
2022-08-30T10:52:21.367Z,7.17
2022-08-30T10:55:07.113Z,4.50
2022-08-30T10:57:34.781Z,5.27
2022-08-30T11:00:05.943Z,6.53
2022-08-30T11:02:42.241Z,6.33
2022-08-30T11:05:27.568Z,4.73
2022-08-30T11:08:22.226Z,5.93
2022-08-30T11:10:55.550Z,6.03
2022-08-30T11:13:24.388Z,5.00
2022-08-30T11:15:57.548Z,3.77
2022-08-30T11:18:25.252Z,5.50
2022-08-30T11:20:53.836Z,5.00
2022-08-30T11:23:24.440Z,7.57
2022-08-30T11:28:38.697Z,4.50
2022-08-30T11:31:07.035Z,4.60
2022-08-30T11:33:40.164Z,4.07
2022-08-30T11:36:07.487Z,4.23
2022-08-30T11:38:34.276Z,4.53
2022-08-30T11:41:13.083Z,3.93
2022-08-30T11:43:43.079Z,3.90
2022-08-30T11:46:28.347Z,3.73
2022-08-30T11:49:13.596Z,5.00
2022-08-30T11:51:58.243Z,3.53
2022-08-30T11:54:55.568Z,4.67
2022-08-30T11:57:41.007Z,3.40
2022-08-30T12:00:12.326Z,2.70
2022-08-30T12:02:45.631Z,4.13
2022-08-30T12:05:31.659Z,2.43
2022-08-30T12:08:00.331Z,4.10
2022-08-30T12:10:44.628Z,3.50
2022-08-30T12:13:31.363Z,2.67
2022-08-30T12:16:05.414Z,4.23
2022-08-30T12:18:37.213Z,2.93
2022-08-30T12:21:15.886Z,3.53
2022-08-30T12:24:03.803Z,3.73
2022-08-30T12:26:34.154Z,3.03
2022-08-30T12:29:13.261Z,3.80
2022-08-30T12:31:52.911Z,2.30
2022-08-30T12:34:19.819Z,2.10
2022-08-30T12:36:52.824Z,3.23
2022-08-30T12:39:21.318Z,1.67
2022-08-30T12:41:48.221Z,3.60
2022-08-30T12:44:28.458Z,2.00
2022-08-30T12:46:59.756Z,2.33
2022-08-30T12:49:28.919Z,3.37
2022-08-30T12:51:56.260Z,2.33
2022-08-30T12:54:25.118Z,2.23
2022-08-30T12:56:54.257Z,2.87
2022-08-30T12:59:40.044Z,2.97
2022-08-30T13:02:20.273Z,3.90
2022-08-30T13:04:48.762Z,4.10
2022-08-30T13:07:26.851Z,1.93
2022-08-30T13:10:05.856Z,3.47
2022-08-30T13:12:33.232Z,3.20
2022-08-30T13:15:10.919Z,2.10
2022-08-30T13:17:38.200Z,2.87
2022-08-30T13:20:08.246Z,1.73
2022-08-30T13:22:39.742Z,2.40
2022-08-30T13:25:07.962Z,2.07
2022-08-30T13:27:36.773Z,1.57
2022-08-30T13:30:08.005Z,2.40
2022-08-30T13:32:40.707Z,3.30
2022-08-30T13:35:08.765Z,2.70
2022-08-30T13:37:51.953Z,2.77
2022-08-30T13:40:20.193Z,5.30
2022-08-30T13:42:47.318Z,9.63
2022-08-30T13:48:02.564Z,3.80
2022-08-30T13:50:30.440Z,5.37
2022-08-30T13:52:57.817Z,3.33
2022-08-30T13:55:24.908Z,3.93
2022-08-30T13:57:56.046Z,3.87
2022-08-30T14:00:25.245Z,3.73
2022-08-30T14:02:57.629Z,3.50
2022-08-30T14:05:48.907Z,4.70
2022-08-30T14:11:06.166Z,6.20
2022-08-30T14:13:33.741Z,7.33
2022-08-30T14:18:50.389Z,3.53
2022-08-30T14:21:17.964Z,4.27
2022-08-30T14:23:48.524Z,4.83
2022-08-30T14:26:18.528Z,3.30
2022-08-30T14:28:45.446Z,5.83
2022-08-30T14:31:13.552Z,3.83
2022-08-30T14:33:40.536Z,3.40
2022-08-30T14:36:12.411Z,3.43
2022-08-30T14:38:42.661Z,3.97
2022-08-30T14:41:11.008Z,6.90
2022-08-30T14:43:40.733Z,5.10
2022-08-30T14:46:10.727Z,5.10
2022-08-30T14:48:38.808Z,5.93
2022-08-30T14:51:17.370Z,3.03
2022-08-30T14:53:44.797Z,3.53
2022-08-30T14:56:12.921Z,2.60
2022-08-30T14:58:39.880Z,2.70
2022-08-30T15:01:08.945Z,2.43
2022-08-30T15:03:36.779Z,3.70
2022-08-30T15:06:04.542Z,3.80
2022-08-30T15:08:31.974Z,2.37
2022-08-30T15:11:00.433Z,3.20
2022-08-30T15:13:27.797Z,6.50
2022-08-30T15:15:54.642Z,3.83
2022-08-30T15:18:23.401Z,3.30
2022-08-30T15:20:51.333Z,5.20
2022-08-30T15:23:18.305Z,4.17
2022-08-30T15:25:49.967Z,2.40
2022-08-30T15:28:17.566Z,3.47
2022-08-30T15:30:44.627Z,3.50
2022-08-30T15:33:11.549Z,3.90
2022-08-30T15:35:38.789Z,3.37
2022-08-30T15:38:05.669Z,3.83
2022-08-30T15:40:32.981Z,4.77
2022-08-30T15:42:59.935Z,3.03
2022-08-30T15:45:31.411Z,2.80
2022-08-30T15:48:01.710Z,2.73
2022-08-30T15:50:29.322Z,3.33
2022-08-30T15:52:57.021Z,3.80
2022-08-30T15:55:24.230Z,3.83
2022-08-30T15:57:53.317Z,3.20
2022-08-30T16:00:21.503Z,4.20
2022-08-30T16:02:49.964Z,4.63
2022-08-30T16:05:19.717Z,4.77
2022-08-30T16:07:46.926Z,4.10
2022-08-30T16:10:15.681Z,3.60
2022-08-30T16:12:42.825Z,2.90
2022-08-30T16:15:10.013Z,3.63
2022-08-30T16:17:36.910Z,4.37
2022-08-30T16:20:06.671Z,3.40
2022-08-30T16:22:33.795Z,3.80
2022-08-30T16:25:00.943Z,4.03
2022-08-30T16:27:28.316Z,2.67
2022-08-30T16:29:55.570Z,3.60
2022-08-30T16:32:22.509Z,3.40
2022-08-30T16:34:50.668Z,5.73
2022-08-30T16:37:18.110Z,6.73
2022-08-30T16:39:45.870Z,5.47
2022-08-30T16:42:21.017Z,8.80
2022-08-30T16:44:49.756Z,4.53
2022-08-30T16:47:17.133Z,4.07
2022-08-30T16:49:44.476Z,3.87
2022-08-30T16:52:11.802Z,4.50
2022-08-30T16:54:38.857Z,7.03
2022-08-30T16:57:06.501Z,5.70
2022-08-30T16:59:33.950Z,4.67
2022-08-30T17:02:01.295Z,4.30
2022-08-30T17:04:28.156Z,4.20
2022-08-30T17:06:55.715Z,5.47
2022-08-30T17:09:25.672Z,4.50
2022-08-30T17:11:53.181Z,4.63
2022-08-30T17:14:27.979Z,5.80
2022-08-30T17:16:57.336Z,4.23
2022-08-30T17:19:26.323Z,6.57
2022-08-30T17:21:54.309Z,7.90
2022-08-30T17:24:21.183Z,6.43
2022-08-30T17:26:48.975Z,4.70
2022-08-30T17:29:15.955Z,7.80
2022-08-30T17:31:46.379Z,7.40
2022-08-30T17:34:18.893Z,6.57
2022-08-30T17:36:45.924Z,7.60
2022-08-30T17:39:13.050Z,3.57
2022-08-30T17:41:43.390Z,3.67
2022-08-30T17:44:17.888Z,3.90
2022-08-30T17:46:45.194Z,4.57
2022-08-30T17:49:12.119Z,4.57
2022-08-30T17:51:42.099Z,3.13
2022-08-30T17:54:09.528Z,3.70
2022-08-30T17:56:36.324Z,3.57
2022-08-30T17:59:05.666Z,3.47
2022-08-30T18:01:32.661Z,3.70
2022-08-30T18:04:02.117Z,4.10
2022-08-30T18:06:33.478Z,3.40
2022-08-30T18:09:01.320Z,4.57
2022-08-30T18:11:28.361Z,4.07
2022-08-30T18:13:55.358Z,3.60
2022-08-30T18:16:26.259Z,3.57
2022-08-30T18:18:57.036Z,4.27
2022-08-30T18:21:25.447Z,4.33
2022-08-30T18:23:55.301Z,5.17
2022-08-30T18:26:24.270Z,5.80
2022-08-30T18:28:51.483Z,4.67
2022-08-30T18:31:18.416Z,6.57
2022-08-30T18:33:45.397Z,6.53
2022-08-30T18:36:12.744Z,4.37
2022-08-30T18:38:40.227Z,4.73
2022-08-30T18:41:10.931Z,5.43
2022-08-30T18:43:38.131Z,6.20
2022-08-30T18:46:06.039Z,4.33
2022-08-30T18:48:33.509Z,7.53
2022-08-30T18:51:02.806Z,5.33
2022-08-30T18:53:29.875Z,4.97
2022-08-30T18:55:57.498Z,4.40
2022-08-30T18:58:24.509Z,5.87
2022-08-30T19:00:51.649Z,4.17
2022-08-30T19:03:18.806Z,6.90
2022-08-30T19:05:46.172Z,4.70
2022-08-30T19:08:13.941Z,5.30
2022-08-30T19:10:41.029Z,7.63
2022-08-30T19:13:08.340Z,4.93
2022-08-30T19:15:35.635Z,4.70
2022-08-30T19:18:03.135Z,5.57
2022-08-30T19:20:44.161Z,10.57
2022-08-30T19:23:11.082Z,6.33
2022-08-30T19:25:39.713Z,5.57
2022-08-30T19:28:09.475Z,5.57
2022-08-30T19:30:36.822Z,12.73
2022-08-30T19:33:03.856Z,4.30
2022-08-30T19:35:32.790Z,9.27
2022-08-30T19:37:59.859Z,4.17
2022-08-30T19:40:27.097Z,3.33
2022-08-30T19:42:54.125Z,4.80
2022-08-30T19:45:23.084Z,4.40
2022-08-30T19:47:50.245Z,5.43
2022-08-30T19:50:17.753Z,7.23
2022-08-30T19:52:48.418Z,9.00
2022-08-30T19:58:07.132Z,6.40
2022-08-30T20:00:36.657Z,5.60
2022-08-30T20:03:10.141Z,6.93
2022-08-30T20:05:37.351Z,9.10
2022-08-30T20:08:04.267Z,7.63
2022-08-30T20:10:31.212Z,6.93
2022-08-30T20:12:58.151Z,5.80
2022-08-30T20:15:25.922Z,5.23
2022-08-30T20:18:05.228Z,5.13
2022-08-30T20:20:33.896Z,4.97
2022-08-30T20:23:04.070Z,5.00
2022-08-30T20:25:31.760Z,6.37
2022-08-30T20:27:59.600Z,6.47
2022-08-30T20:30:27.307Z,10.70
2022-08-30T20:32:54.676Z,7.70
2022-08-30T20:35:21.996Z,8.50
2022-08-30T20:37:50.959Z,11.23
2022-08-30T20:40:18.148Z,8.63
2022-08-30T20:42:46.546Z,7.53
2022-08-30T20:45:14.593Z,6.38
2022-08-30T20:47:43.114Z,7.27
2022-08-30T20:50:14.475Z,6.97
2022-08-30T20:52:42.060Z,6.03
2022-08-30T20:55:10.490Z,6.30
2022-08-30T20:57:38.434Z,9.93
2022-08-30T21:00:06.821Z,5.50
2022-08-30T21:02:34.430Z,6.27
2022-08-30T21:05:03.231Z,7.60
2022-08-30T21:07:30.210Z,8.70
2022-08-30T21:09:57.041Z,6.37
2022-08-30T21:12:24.679Z,7.47
2022-08-30T21:14:51.835Z,6.77
2022-08-30T21:17:19.046Z,7.73
2022-08-30T21:19:46.519Z,7.13
2022-08-30T21:22:13.514Z,5.90
2022-08-30T21:24:40.446Z,11.23
2022-08-30T21:27:07.883Z,6.03
2022-08-30T21:29:34.691Z,6.83
2022-08-30T21:32:01.647Z,5.30
2022-08-30T21:34:28.486Z,4.73
2022-08-30T21:36:55.620Z,9.10
2022-08-30T21:39:24.672Z,6.17
2022-08-30T21:41:54.570Z,6.53
2022-08-30T21:44:22.477Z,6.07
2022-08-30T21:46:50.833Z,5.73
2022-08-30T21:49:20.075Z,8.43
2022-08-30T21:51:48.015Z,4.73
2022-08-30T21:54:15.816Z,6.53
2022-08-30T21:56:43.887Z,5.27
2022-08-30T21:59:11.578Z,6.90
2022-08-30T22:01:38.990Z,8.23
2022-08-30T22:04:07.763Z,7.10
2022-08-30T22:06:35.386Z,6.63
2022-08-30T22:09:03.827Z,7.00
2022-08-30T22:11:31.866Z,5.47
2022-08-30T22:13:59.248Z,11.23
2022-08-30T22:16:28.266Z,11.13
2022-08-30T22:18:55.254Z,11.70
2022-08-30T22:21:24.049Z,8.87
2022-08-30T22:23:50.998Z,7.20
2022-08-30T22:26:19.353Z,5.63
2022-08-30T22:28:46.473Z,7.80
2022-08-30T22:31:14.313Z,6.67
2022-08-30T22:33:41.443Z,8.90
2022-08-30T22:36:10.886Z,5.93
2022-08-30T22:38:37.749Z,5.17
2022-08-30T22:41:08.495Z,7.40
2022-08-30T22:43:35.426Z,7.13
2022-08-30T22:46:02.411Z,7.33
2022-08-30T22:48:29.415Z,9.33
2022-08-30T22:50:56.231Z,5.73
2022-08-30T22:53:23.385Z,5.63
2022-08-30T22:55:50.229Z,9.30
2022-08-30T22:58:19.141Z,6.70
2022-08-30T23:00:54.492Z,8.03
2022-08-30T23:03:22.203Z,6.30
2022-08-30T23:05:49.143Z,7.57
2022-08-30T23:08:15.947Z,4.13
2022-08-30T23:10:44.873Z,5.37
2022-08-30T23:13:11.730Z,6.57
2022-08-30T23:15:38.661Z,9.50
2022-08-30T23:18:06.038Z,7.23
2022-08-30T23:20:33.233Z,8.13
2022-08-30T23:23:00.082Z,12.50
2022-08-30T23:25:46.689Z,7.37
2022-08-30T23:28:37.849Z,7.07
2022-08-30T23:31:31.397Z,7.70
2022-08-30T23:34:17.280Z,8.23
2022-08-30T23:37:02.923Z,6.13
2022-08-30T23:39:48.634Z,7.97
2022-08-30T23:42:34.523Z,5.90
2022-08-30T23:45:19.936Z,7.70
2022-08-30T23:48:05.417Z,5.70
2022-08-30T23:50:50.690Z,5.83
2022-08-30T23:53:36.109Z,7.43
2022-08-30T23:56:21.511Z,9.23
2022-08-30T23:59:07.265Z,6.83
